createdAt,value
2022-10-18T00:00:17.584Z,5.32
2022-10-18T00:02:47.380Z,6.43
2022-10-18T00:05:13.958Z,5.97
2022-10-18T00:07:40.776Z,5.70
2022-10-18T00:10:07.934Z,5.43
2022-10-18T00:12:38.781Z,5.30
2022-10-18T00:15:06.466Z,6.13
2022-10-18T00:17:36.548Z,5.78
2022-10-18T00:20:03.826Z,5.53
2022-10-18T00:22:30.931Z,5.57
2022-10-18T00:24:57.699Z,5.40
2022-10-18T00:27:24.656Z,5.00
2022-10-18T00:29:54.640Z,5.28
2022-10-18T00:32:23.727Z,6.25
2022-10-18T00:34:50.181Z,5.28
2022-10-18T00:37:17.872Z,5.53
2022-10-18T00:39:44.490Z,5.85
2022-10-18T00:42:21.579Z,6.35
2022-10-18T00:44:51.071Z,5.57
2022-10-18T00:47:19.053Z,5.90
2022-10-18T00:49:51.375Z,6.00
2022-10-18T00:52:20.713Z,5.93
2022-10-18T00:54:47.868Z,6.15
2022-10-18T00:57:14.622Z,5.50
2022-10-18T00:59:41.664Z,5.60
2022-10-18T01:02:08.660Z,6.20
2022-10-18T01:04:38.215Z,6.43
2022-10-18T01:07:16.750Z,5.20
2022-10-18T01:09:49.465Z,5.47
2022-10-18T01:12:19.039Z,6.28
2022-10-18T01:14:56.416Z,6.13
2022-10-18T01:17:29.532Z,5.88
2022-10-18T01:20:06.574Z,5.70
2022-10-18T01:22:48.013Z,5.55
2022-10-18T01:25:18.054Z,5.95
2022-10-18T01:27:47.702Z,6.35
2022-10-18T01:30:14.944Z,5.80
2022-10-18T01:32:44.341Z,5.40
2022-10-18T01:35:16.268Z,5.43
2022-10-18T01:37:45.296Z,5.75
2022-10-18T01:40:12.454Z,5.57
2022-10-18T01:42:39.206Z,6.35
2022-10-18T01:45:07.817Z,5.90
2022-10-18T01:47:34.744Z,5.50
2022-10-18T01:50:02.974Z,5.90
2022-10-18T01:52:29.555Z,5.10
2022-10-18T01:54:56.551Z,5.80
2022-10-18T01:57:33.009Z,5.95
2022-10-18T02:00:18.167Z,5.50
2022-10-18T02:02:47.509Z,5.50
2022-10-18T02:05:25.044Z,5.57
2022-10-18T02:08:18.776Z,5.60
2022-10-18T02:10:51.005Z,6.03
2022-10-18T02:13:19.012Z,5.97
2022-10-18T02:15:46.860Z,6.03
2022-10-18T02:18:16.079Z,6.00
2022-10-18T02:20:42.469Z,5.70
2022-10-18T02:23:10.570Z,5.80
2022-10-18T02:25:37.140Z,6.00
2022-10-18T02:28:03.879Z,5.60
2022-10-18T02:30:37.145Z,6.20
2022-10-18T02:33:16.312Z,5.63
2022-10-18T02:35:49.645Z,5.30
2022-10-18T02:38:17.351Z,6.20
2022-10-18T02:40:43.683Z,5.60
2022-10-18T02:43:10.002Z,6.03
2022-10-18T02:45:36.458Z,6.28
2022-10-18T02:48:02.808Z,5.50
2022-10-18T02:50:29.158Z,6.13
2022-10-18T02:52:55.552Z,5.22
2022-10-18T02:55:21.931Z,5.65
2022-10-18T02:57:48.321Z,5.93
2022-10-18T03:00:14.957Z,5.05
2022-10-18T03:02:41.290Z,5.65
2022-10-18T03:05:07.771Z,5.40
2022-10-18T03:07:34.306Z,5.97
2022-10-18T03:10:00.866Z,5.47
2022-10-18T03:12:27.190Z,5.50
2022-10-18T03:14:53.511Z,5.97
2022-10-18T03:17:20.204Z,4.90
2022-10-18T03:19:46.552Z,6.07
2022-10-18T03:22:12.970Z,5.80
2022-10-18T03:24:39.328Z,5.38
2022-10-18T03:27:05.642Z,6.75
2022-10-18T03:29:31.997Z,5.82
2022-10-18T03:31:58.324Z,6.93
2022-10-18T03:34:24.692Z,6.03
2022-10-18T03:36:51.052Z,5.75
2022-10-18T03:39:17.431Z,5.90
2022-10-18T03:41:43.781Z,6.78
2022-10-18T03:44:10.132Z,5.90
2022-10-18T03:46:36.480Z,5.82
2022-10-18T03:49:03.184Z,6.72
2022-10-18T03:51:29.547Z,7.03
2022-10-18T03:53:55.846Z,6.45
2022-10-18T03:56:22.228Z,6.30
2022-10-18T03:58:48.560Z,6.55
2022-10-18T04:01:14.984Z,5.70
2022-10-18T04:03:41.423Z,7.88
2022-10-18T04:06:09.789Z,6.00
2022-10-18T04:08:36.167Z,6.50
2022-10-18T04:11:08.283Z,6.05
2022-10-18T04:13:35.244Z,6.15
2022-10-18T04:16:01.610Z,6.90
2022-10-18T04:18:27.942Z,6.47
2022-10-18T04:20:54.246Z,7.85
2022-10-18T04:23:20.558Z,7.10
2022-10-18T04:25:47.312Z,7.43
2022-10-18T04:28:13.648Z,7.15
2022-10-18T04:30:39.971Z,5.93
2022-10-18T04:33:06.408Z,6.40
2022-10-18T04:35:32.733Z,6.88
2022-10-18T04:37:59.076Z,6.50
2022-10-18T04:40:25.418Z,7.20
2022-10-18T04:42:51.840Z,5.95
2022-10-18T04:45:18.175Z,7.82
2022-10-18T04:47:44.506Z,6.47
2022-10-18T04:50:10.845Z,6.85
2022-10-18T04:52:37.317Z,6.90
2022-10-18T04:55:03.712Z,6.63
2022-10-18T04:57:30.517Z,6.07
2022-10-18T04:59:57.107Z,6.82
2022-10-18T05:02:23.477Z,6.10
2022-10-18T05:04:50.653Z,5.93
2022-10-18T05:07:17.275Z,7.13
2022-10-18T05:09:43.572Z,6.88
2022-10-18T05:12:09.926Z,6.78
2022-10-18T05:14:36.267Z,7.32
2022-10-18T05:17:02.663Z,6.22
2022-10-18T05:19:29.022Z,6.40
2022-10-18T05:21:55.378Z,7.10
2022-10-18T05:24:24.140Z,6.68
2022-10-18T05:26:53.269Z,7.28
2022-10-18T05:29:19.700Z,7.10
2022-10-18T05:31:46.137Z,7.22
2022-10-18T05:34:12.490Z,6.95
2022-10-18T05:36:39.047Z,7.00
2022-10-18T05:39:05.668Z,6.53
2022-10-18T05:41:32.285Z,6.93
2022-10-18T05:43:58.693Z,7.30
2022-10-18T05:46:25.035Z,7.45
2022-10-18T05:48:51.529Z,6.72
2022-10-18T05:51:18.526Z,8.20
2022-10-18T05:53:44.856Z,7.93
2022-10-18T05:56:11.942Z,7.88
2022-10-18T05:58:38.493Z,7.80
2022-10-18T06:01:05.790Z,7.13
2022-10-18T06:03:32.349Z,6.25
2022-10-18T06:06:02.421Z,6.25
2022-10-18T06:08:28.917Z,6.03
2022-10-18T06:10:55.515Z,5.50
2022-10-18T06:13:21.926Z,7.00
2022-10-18T06:15:48.319Z,6.60
2022-10-18T06:18:14.665Z,6.25
2022-10-18T06:20:41.020Z,6.93
2022-10-18T06:23:07.463Z,7.25
2022-10-18T06:25:33.841Z,7.75
2022-10-18T06:28:00.184Z,6.25
2022-10-18T06:30:26.550Z,5.32
2022-10-18T06:32:52.847Z,5.20
2022-10-18T06:35:19.164Z,5.13
2022-10-18T06:37:45.474Z,5.20
2022-10-18T06:40:11.899Z,5.15
2022-10-18T06:42:38.267Z,4.95
2022-10-18T06:45:05.301Z,5.22
2022-10-18T06:47:31.634Z,4.40
2022-10-18T06:49:58.019Z,5.32
2022-10-18T06:52:25.669Z,5.30
2022-10-18T06:54:52.650Z,5.10
2022-10-18T06:57:19.881Z,4.55
2022-10-18T06:59:46.374Z,5.22
2022-10-18T07:02:17.163Z,5.85
2022-10-18T07:04:43.613Z,4.70
2022-10-18T07:07:09.943Z,5.30
2022-10-18T07:09:36.329Z,5.68
2022-10-18T07:12:02.672Z,6.05
2022-10-18T07:14:29.324Z,5.20
2022-10-18T07:16:58.191Z,5.20
2022-10-18T07:19:24.542Z,5.45
2022-10-18T07:21:50.891Z,6.40
2022-10-18T07:24:17.236Z,5.22
2022-10-18T07:26:43.566Z,6.18
2022-10-18T07:29:11.310Z,5.30
2022-10-18T07:31:40.961Z,5.00
2022-10-18T07:34:08.282Z,5.65
2022-10-18T07:36:34.779Z,5.47
2022-10-18T07:39:01.135Z,7.22
2022-10-18T07:41:27.626Z,6.20
2022-10-18T07:43:54.007Z,5.25
2022-10-18T07:46:21.194Z,5.82
2022-10-18T07:48:47.559Z,6.72
2022-10-18T07:51:14.150Z,5.43
2022-10-18T07:53:40.636Z,6.82
2022-10-18T07:56:09.753Z,5.03
2022-10-18T07:58:36.537Z,5.97
2022-10-18T08:01:06.613Z,6.60
2022-10-18T08:03:33.247Z,5.50
2022-10-18T08:05:59.670Z,5.65
2022-10-18T08:08:26.575Z,5.38
2022-10-18T08:10:52.988Z,6.15
2022-10-18T08:13:19.339Z,5.85
2022-10-18T08:15:45.677Z,6.63
2022-10-18T08:18:12.346Z,6.00
2022-10-18T08:20:42.586Z,6.43
2022-10-18T08:23:09.226Z,7.35
2022-10-18T08:28:02.828Z,6.30
2022-10-18T08:30:29.244Z,5.95
2022-10-18T08:32:55.600Z,5.80
2022-10-18T08:35:22.010Z,6.93
2022-10-18T08:37:48.493Z,7.05
2022-10-18T08:40:15.304Z,8.10
2022-10-18T08:42:47.635Z,7.50
2022-10-18T08:45:30.031Z,9.15
2022-10-18T08:48:01.458Z,9.90
2022-10-18T08:50:31.092Z,10.13
2022-10-18T08:52:57.454Z,10.95
2022-10-18T08:55:26.734Z,11.30
2022-10-18T08:57:53.157Z,11.18
2022-10-18T09:00:19.612Z,11.93
2022-10-18T09:02:48.914Z,10.82
2022-10-18T09:05:47.791Z,10.10
2022-10-18T09:08:31.735Z,10.13
2022-10-18T09:11:00.879Z,10.00
2022-10-18T09:13:33.376Z,9.50
2022-10-18T09:15:59.812Z,9.02
2022-10-18T09:18:26.169Z,8.90
2022-10-18T09:21:00.052Z,8.70
2022-10-18T09:23:35.730Z,8.05
2022-10-18T09:26:06.797Z,7.75
2022-10-18T09:28:33.219Z,7.13
2022-10-18T09:31:26.089Z,7.10
2022-10-18T09:33:56.282Z,5.85
2022-10-18T09:36:27.632Z,4.95
2022-10-18T09:38:59.853Z,5.10
2022-10-18T09:41:29.706Z,4.30
2022-10-18T09:44:01.612Z,3.03
2022-10-18T09:46:31.282Z,2.90
2022-10-18T09:49:36.030Z,2.65
2022-10-18T09:52:06.131Z,2.60
2022-10-18T09:54:35.996Z,2.63
2022-10-18T09:57:04.615Z,2.20
2022-10-18T09:59:40.417Z,2.08
2022-10-18T10:02:07.197Z,1.90
2022-10-18T10:04:33.727Z,2.20
2022-10-18T10:07:01.147Z,2.65
2022-10-18T10:09:29.535Z,2.20
2022-10-18T10:11:56.682Z,1.90
2022-10-18T10:14:27.435Z,2.00
2022-10-18T10:16:55.009Z,2.03
2022-10-18T10:19:28.833Z,1.95
2022-10-18T10:21:57.377Z,2.00
2022-10-18T10:24:28.836Z,1.92
2022-10-18T10:27:02.028Z,1.50
2022-10-18T10:29:46.880Z,1.90
2022-10-18T10:32:14.902Z,1.42
2022-10-18T10:34:44.617Z,1.60
2022-10-18T10:37:31.861Z,1.52
2022-10-18T10:40:18.328Z,1.85
2022-10-18T10:42:54.522Z,1.70
2022-10-18T10:45:27.752Z,1.70
2022-10-18T10:47:55.016Z,1.10
2022-10-18T10:50:28.299Z,1.80
2022-10-18T10:52:55.136Z,1.60
2022-10-18T10:55:35.237Z,1.80
2022-10-18T10:58:02.139Z,1.60
2022-10-18T11:00:42.738Z,1.50
2022-10-18T11:03:29.403Z,1.40
2022-10-18T11:05:57.756Z,2.00
2022-10-18T11:08:29.546Z,1.98
2022-10-18T11:11:01.972Z,1.50
2022-10-18T11:13:35.780Z,1.65
2022-10-18T11:16:05.288Z,1.60
2022-10-18T11:18:33.300Z,2.70
2022-10-18T11:21:08.639Z,1.92
2022-10-18T11:23:36.357Z,2.35
2022-10-18T11:26:08.701Z,2.05
2022-10-18T11:28:44.303Z,1.80
2022-10-18T11:31:29.546Z,2.22
2022-10-18T11:34:10.285Z,2.20
2022-10-18T11:36:46.224Z,2.20
2022-10-18T11:39:41.482Z,1.65
2022-10-18T11:42:13.898Z,1.60
2022-10-18T11:44:43.305Z,1.40
2022-10-18T11:47:25.638Z,1.77
2022-10-18T11:49:55.174Z,1.50
2022-10-18T11:52:27.710Z,1.52
2022-10-18T11:54:54.021Z,1.70
2022-10-18T11:57:29.385Z,1.73
2022-10-18T12:00:02.116Z,1.48
2022-10-18T12:02:53.779Z,1.52
2022-10-18T12:05:24.556Z,1.40
2022-10-18T12:08:00.909Z,1.30
2022-10-18T12:10:44.078Z,1.30
2022-10-18T12:13:18.773Z,1.10
2022-10-18T12:15:45.482Z,0.90
2022-10-18T12:18:14.685Z,1.25
2022-10-18T12:20:41.094Z,1.00
2022-10-18T12:23:11.354Z,1.00
2022-10-18T12:25:40.151Z,1.95
2022-10-18T12:28:13.919Z,1.20
2022-10-18T12:30:43.625Z,1.25
2022-10-18T12:33:27.233Z,1.45
2022-10-18T12:35:57.661Z,1.40
2022-10-18T12:38:26.746Z,1.10
2022-10-18T12:40:53.777Z,0.80
2022-10-18T12:43:24.693Z,1.00
2022-10-18T12:45:56.899Z,1.00
2022-10-18T12:48:26.061Z,2.53
2022-10-18T12:50:57.816Z,1.17
2022-10-18T12:53:25.148Z,1.02
2022-10-18T12:55:51.862Z,1.00
2022-10-18T12:58:21.301Z,0.70
2022-10-18T13:00:47.785Z,1.05
2022-10-18T13:03:17.280Z,0.93
2022-10-18T13:05:54.411Z,1.45
2022-10-18T13:08:27.367Z,1.15
2022-10-18T13:11:09.141Z,0.90
2022-10-18T13:13:44.642Z,1.25
2022-10-18T13:16:14.009Z,2.92
2022-10-18T13:18:40.397Z,1.77
2022-10-18T13:21:27.456Z,3.70
2022-10-18T13:24:00.857Z,1.60
2022-10-18T13:26:45.999Z,1.80
2022-10-18T13:29:31.377Z,2.42
2022-10-18T13:32:03.724Z,1.95
2022-10-18T13:34:35.227Z,2.58
2022-10-18T13:37:03.402Z,1.80
2022-10-18T13:39:30.249Z,1.55
2022-10-18T13:41:57.967Z,2.03
2022-10-18T13:44:31.741Z,1.30
2022-10-18T13:49:27.340Z,2.22
2022-10-18T13:52:07.266Z,1.08
2022-10-18T13:54:51.641Z,0.70
2022-10-18T13:57:27.113Z,1.38
2022-10-18T13:59:53.375Z,1.55
2022-10-18T14:02:50.903Z,1.40
2022-10-18T14:05:41.593Z,3.13
2022-10-18T14:08:31.314Z,1.52
2022-10-18T14:11:16.331Z,0.80
2022-10-18T14:13:45.728Z,0.60
2022-10-18T14:16:23.866Z,1.00
2022-10-18T14:18:51.408Z,1.55
2022-10-18T14:21:26.266Z,0.90
2022-10-18T14:23:55.314Z,1.10
2022-10-18T14:26:22.801Z,1.90
2022-10-18T14:29:15.797Z,0.80
2022-10-18T14:31:43.335Z,0.82
2022-10-18T14:34:14.699Z,1.40
2022-10-18T14:36:41.783Z,1.50
2022-10-18T14:39:16.872Z,1.00
2022-10-18T14:41:50.969Z,1.02
2022-10-18T14:44:21.784Z,1.17
2022-10-18T14:46:49.780Z,15.95
2022-10-18T14:49:17.327Z,20.88
2022-10-18T14:51:45.333Z,11.57
2022-10-18T14:54:16.174Z,4.85
2022-10-18T14:56:42.763Z,2.35
2022-10-18T14:59:26.912Z,1.50
2022-10-18T15:02:01.208Z,1.17
2022-10-18T15:04:33.150Z,1.10
2022-10-18T15:07:07.241Z,1.10
2022-10-18T15:09:34.964Z,1.50
2022-10-18T15:12:03.351Z,1.50
2022-10-18T15:14:30.327Z,2.00
2022-10-18T15:17:00.121Z,1.60
2022-10-18T15:19:28.450Z,1.35
2022-10-18T15:22:19.855Z,1.10
2022-10-18T15:24:42.948Z,1.50
2022-10-18T15:27:12.365Z,2.10
2022-10-18T15:29:38.866Z,2.22
2022-10-18T15:32:08.053Z,1.92
2022-10-18T15:34:35.246Z,1.90
2022-10-18T15:37:14.721Z,2.10
2022-10-18T15:39:41.114Z,1.85
2022-10-18T15:42:27.505Z,3.30
2022-10-18T15:44:53.994Z,4.40
2022-10-18T15:47:21.659Z,4.97
2022-10-18T15:49:50.915Z,4.45
2022-10-18T15:52:27.724Z,5.60
2022-10-18T15:54:54.222Z,2.67
2022-10-18T15:57:20.807Z,3.90
2022-10-18T15:59:54.608Z,3.72
2022-10-18T16:02:21.035Z,3.40
2022-10-18T16:04:47.886Z,4.82
2022-10-18T16:07:14.281Z,2.95
2022-10-18T16:09:40.681Z,3.08
2022-10-18T16:12:07.172Z,3.40
2022-10-18T16:14:33.533Z,16.55
2022-10-18T16:17:00.952Z,6.88
2022-10-18T16:19:27.800Z,4.75
2022-10-18T16:21:54.696Z,5.90
2022-10-18T16:24:21.129Z,2.95
2022-10-18T16:26:48.105Z,2.20
2022-10-18T16:29:15.759Z,5.20
2022-10-18T16:31:42.229Z,2.70
2022-10-18T16:34:11.141Z,4.15
2022-10-18T16:36:37.527Z,2.60
2022-10-18T16:39:07.569Z,3.13
2022-10-18T16:41:34.108Z,8.00
2022-10-18T16:44:00.507Z,6.60
2022-10-18T16:46:28.503Z,3.97
2022-10-18T16:48:55.511Z,4.35
2022-10-18T16:51:22.260Z,3.60
2022-10-18T16:53:49.104Z,3.90
2022-10-18T16:56:19.836Z,3.15
2022-10-18T16:58:46.343Z,3.20
2022-10-18T17:01:17.364Z,3.92
2022-10-18T17:03:44.192Z,6.20
2022-10-18T17:06:15.415Z,5.07
2022-10-18T17:08:41.781Z,5.95
2022-10-18T17:11:09.828Z,6.13
2022-10-18T17:13:36.240Z,6.00
2022-10-18T17:16:03.790Z,5.28
2022-10-18T17:18:33.379Z,5.20
2022-10-18T17:21:02.989Z,5.63
2022-10-18T17:23:30.101Z,6.40
2022-10-18T17:26:05.344Z,5.63
2022-10-18T17:28:41.599Z,5.82
2022-10-18T17:31:08.023Z,5.30
2022-10-18T17:33:34.569Z,5.07
2022-10-18T17:36:00.927Z,5.22
2022-10-18T17:38:27.445Z,4.78
2022-10-18T17:40:54.584Z,5.20
2022-10-18T17:43:20.979Z,5.40
2022-10-18T17:45:48.326Z,5.80
2022-10-18T17:48:16.727Z,6.20
2022-10-18T17:50:43.107Z,6.50
2022-10-18T17:53:10.652Z,8.73
2022-10-18T17:55:37.028Z,10.57
2022-10-18T17:58:03.406Z,10.65
2022-10-18T18:00:29.815Z,10.57
2022-10-18T18:02:59.853Z,9.98
2022-10-18T18:05:32.229Z,9.57
2022-10-18T18:08:02.883Z,9.02
2022-10-18T18:10:32.371Z,7.95
2022-10-18T18:12:58.789Z,7.05
2022-10-18T18:15:25.174Z,6.22
2022-10-18T18:17:58.889Z,6.82
2022-10-18T18:20:25.803Z,6.00
2022-10-18T18:22:52.240Z,5.90
2022-10-18T18:25:18.607Z,6.90
2022-10-18T18:27:44.980Z,6.38
2022-10-18T18:30:11.627Z,8.15
2022-10-18T18:32:39.367Z,6.97
2022-10-18T18:35:05.950Z,6.97
2022-10-18T18:37:32.416Z,6.88
2022-10-18T18:39:58.787Z,7.70
2022-10-18T18:42:25.178Z,9.07
2022-10-18T18:44:51.574Z,8.77
2022-10-18T18:47:21.366Z,8.88
2022-10-18T18:49:48.123Z,9.57
2022-10-18T18:52:14.496Z,9.77
2022-10-18T18:54:40.897Z,9.00
2022-10-18T18:57:07.384Z,9.65
2022-10-18T18:59:34.086Z,10.15
2022-10-18T19:02:00.535Z,9.65
2022-10-18T19:04:28.956Z,9.48
2022-10-18T19:06:55.353Z,12.68
2022-10-18T19:09:22.839Z,14.55
2022-10-18T19:11:50.695Z,12.75
2022-10-18T19:14:17.138Z,12.60
2022-10-18T19:16:47.814Z,15.05
2022-10-18T19:19:15.585Z,15.40
2022-10-18T19:21:44.296Z,15.20
2022-10-18T19:24:11.073Z,18.48
2022-10-18T19:26:39.067Z,17.55
2022-10-18T19:29:10.878Z,15.40
2022-10-18T19:31:38.020Z,15.18
2022-10-18T19:34:05.409Z,14.55
2022-10-18T19:36:31.901Z,14.18
2022-10-18T19:38:58.395Z,14.15
2022-10-18T19:43:57.183Z,13.68
2022-10-18T19:46:23.911Z,14.70
2022-10-18T19:48:50.428Z,11.50
2022-10-18T19:51:20.306Z,13.07
2022-10-18T19:53:50.567Z,14.93
2022-10-18T19:56:18.517Z,11.50
2022-10-18T19:58:45.579Z,12.93
2022-10-18T20:01:12.058Z,11.52
2022-10-18T20:03:38.526Z,11.73
2022-10-18T20:06:04.975Z,12.43
2022-10-18T20:08:32.624Z,11.73
2022-10-18T20:11:03.479Z,11.43
2022-10-18T20:13:29.926Z,12.57
2022-10-18T20:15:56.338Z,10.73
2022-10-18T20:18:22.714Z,11.50
2022-10-18T20:20:49.338Z,12.02
2022-10-18T20:23:16.601Z,11.20
2022-10-18T20:25:43.284Z,11.95
2022-10-18T20:28:09.667Z,10.40
2022-10-18T20:30:36.054Z,10.38
2022-10-18T20:33:02.501Z,10.00
2022-10-18T20:35:28.911Z,9.93
2022-10-18T20:37:55.285Z,10.02
2022-10-18T20:40:21.660Z,9.82
2022-10-18T20:42:48.075Z,8.52
2022-10-18T20:45:14.477Z,9.18
2022-10-18T20:47:40.886Z,8.63
2022-10-18T20:50:07.606Z,9.30
2022-10-18T20:52:34.020Z,9.32
2022-10-18T20:55:00.412Z,8.25
2022-10-18T20:57:30.585Z,9.40
2022-10-18T20:59:58.128Z,8.13
2022-10-18T21:02:24.566Z,9.00
2022-10-18T21:04:51.017Z,8.57
2022-10-18T21:07:17.431Z,9.27
2022-10-18T21:09:43.840Z,9.25
2022-10-18T21:14:37.566Z,7.35
2022-10-18T21:17:03.921Z,8.20
2022-10-18T21:19:30.302Z,8.52
2022-10-18T21:21:56.998Z,10.23
2022-10-18T21:24:23.965Z,9.80
2022-10-18T21:26:50.369Z,9.35
2022-10-18T21:29:21.556Z,10.35
2022-10-18T21:31:48.801Z,7.82
2022-10-18T21:34:17.349Z,8.27
2022-10-18T21:36:44.595Z,7.57
2022-10-18T21:39:12.921Z,8.18
2022-10-18T21:41:39.396Z,8.15
2022-10-18T21:44:08.369Z,7.70
2022-10-18T21:46:37.484Z,8.02
2022-10-18T21:49:03.904Z,8.73
2022-10-18T21:51:30.376Z,9.07
2022-10-18T21:53:57.655Z,8.43
2022-10-18T21:56:31.162Z,9.18
2022-10-18T21:58:57.838Z,8.75
2022-10-18T22:01:24.239Z,8.55
2022-10-18T22:03:52.225Z,8.55
2022-10-18T22:06:18.962Z,8.15
2022-10-18T22:08:52.504Z,8.65
2022-10-18T22:11:20.156Z,9.45
2022-10-18T22:13:47.113Z,7.05
2022-10-18T22:16:14.587Z,7.40
2022-10-18T22:18:41.374Z,7.13
2022-10-18T22:21:08.844Z,7.07
2022-10-18T22:23:36.417Z,6.97
2022-10-18T22:26:03.742Z,7.47
2022-10-18T22:28:30.200Z,7.22
2022-10-18T22:30:56.668Z,7.05
2022-10-18T22:33:23.098Z,6.40
2022-10-18T22:35:49.863Z,6.47
2022-10-18T22:38:16.367Z,6.63
2022-10-18T22:40:42.710Z,7.57
2022-10-18T22:43:09.079Z,6.25
2022-10-18T22:45:35.488Z,5.93
2022-10-18T22:48:01.879Z,5.68
2022-10-18T22:50:28.241Z,7.50
2022-10-18T22:52:54.733Z,5.38
2022-10-18T22:55:21.179Z,5.80
2022-10-18T22:57:47.539Z,5.90
2022-10-18T23:00:14.242Z,4.93
2022-10-18T23:02:40.626Z,4.78
2022-10-18T23:05:07.184Z,5.32
2022-10-18T23:07:33.558Z,4.80
2022-10-18T23:09:59.908Z,4.63
2022-10-18T23:12:26.297Z,4.28
2022-10-18T23:14:52.661Z,4.50
2022-10-18T23:17:19.058Z,4.75
2022-10-18T23:19:45.441Z,4.10
2022-10-18T23:22:14.781Z,4.50
2022-10-18T23:24:41.227Z,4.32
2022-10-18T23:27:07.560Z,4.47
2022-10-18T23:29:33.968Z,4.53
2022-10-18T23:32:00.323Z,4.90
2022-10-18T23:34:26.755Z,6.25
2022-10-18T23:36:53.101Z,5.65
2022-10-18T23:39:19.525Z,4.53
2022-10-18T23:41:45.863Z,4.38
2022-10-18T23:44:12.273Z,4.07
2022-10-18T23:46:38.623Z,6.40
2022-10-18T23:49:05.077Z,5.25
2022-10-18T23:51:31.447Z,4.80
2022-10-18T23:53:57.789Z,5.75
2022-10-18T23:56:24.151Z,5.88
2022-10-18T23:58:50.545Z,6.22
